Startpagina
METAR-TAF:

METAR-TAF

Vliegvelden :

Flughafen Frankfurt-Hahn

Hahn, Duitsland

breedte: 49-57N, lengte: 007-16E, hoogte: 491 m

Actueel weer

Dit bericht is 29 minuten geleden gemaakt, om 07:50 UTC
Wind 2 kt uit variabele richting
Temperatuur 7°C
Vochtigheid 70%
Druk 1028 hPa
Zicht 10 km of meer
geen wolken onder 1500 m en geen cumulonimbus

METAR: EDFH 230750Z VRB02KT CAVOK 07/02 Q1028

Tijdstip: 09:19 (08:19 UTC)

Verwachting

Dit bericht is 3 uur en het 19 minuten geleden gemaakt, om 05:00 UTC
Verwachting geldig van 23 om 06 UTC tot 24 om 06 UTC
Wind 4 kt uit het westzuidwesten
Zicht 10 km of meer
geen wolken onder 1500 m en geen cumulonimbus
Wijzigt naar
van 23 om 09 UTC tot 23 om 11 UTC
Wind 5 kt uit het noordnoordwesten
Wijzigt naar
van 23 om 16 UTC tot 23 om 18 UTC
Wind 7 kt uit het noordoosten
Kans 30% :
Tijdelijke
van 23 om 18 UTC tot 24 om 06 UTC
Gebroken wolken op 1200 ft

TAF: EDFH 230500Z 2306/2406 25004KT CAVOK BECMG 2309/2311 33005KT BECMG 2316/2318 04007KT PROB30 TEMPO 2318/2406 BKN012

Waarnemingen en weersverwachtingen van meer dan 4000 vliegvelden (METAR en TAF).

De beschikbare stations zijn de gele en rode punten op de kaart.

Ga met uw muis naar het station om de naam te zien.

Klik dan om waarnemingen en weersverwachtingen te zien.

kaart wijzigen: klik op de groene knoppen met een zwart kruis om in te zoomen, op de groene knop met een streepje om uit te zoomen of op de groene pijlen voor aangrenzende kaarten.


METAR-TAF: